createdAt,value
2023-04-17T00:02:04.635Z,92.70
2023-04-17T00:04:28.191Z,92.70
2023-04-17T00:06:53.964Z,92.60
2023-04-17T00:09:17.355Z,92.80
2023-04-17T00:11:41.420Z,92.70
2023-04-17T00:14:04.784Z,92.90
2023-04-17T00:16:28.441Z,92.90
2023-04-17T00:18:52.167Z,92.80
2023-04-17T00:21:15.432Z,92.80
2023-04-17T00:23:40.564Z,92.50
2023-04-17T00:26:03.783Z,92.70
2023-04-17T00:28:27.069Z,92.60
2023-04-17T00:30:50.415Z,92.50
2023-04-17T00:33:14.020Z,92.60
2023-04-17T00:35:38.598Z,92.60
2023-04-17T00:38:01.939Z,92.40
2023-04-17T00:40:26.584Z,92.40
2023-04-17T00:42:53.261Z,92.40
2023-04-17T00:45:17.202Z,92.30
2023-04-17T00:47:41.035Z,92.40
2023-04-17T00:50:04.797Z,92.50
2023-04-17T00:52:30.807Z,92.30
2023-04-17T00:54:55.635Z,92.30
2023-04-17T00:57:20.552Z,92.30
2023-04-17T00:59:45.430Z,92.30
2023-04-17T01:02:08.993Z,92.40
2023-04-17T01:04:32.370Z,92.20
2023-04-17T01:06:55.713Z,92.40
2023-04-17T01:09:18.984Z,92.30
2023-04-17T01:11:42.245Z,92.40
2023-04-17T01:14:06.912Z,92.50
2023-04-17T01:16:30.993Z,92.50
2023-04-17T01:18:54.500Z,92.50
2023-04-17T01:21:18.004Z,92.40
2023-04-17T01:23:46.977Z,92.50
2023-04-17T01:26:13.138Z,92.60
2023-04-17T01:28:36.440Z,92.50
2023-04-17T01:30:59.783Z,92.50
2023-04-17T01:33:23.685Z,92.50
2023-04-17T01:35:47.137Z,92.50
2023-04-17T01:38:10.431Z,92.60
2023-04-17T01:40:33.623Z,92.60
2023-04-17T01:42:58.236Z,92.70
2023-04-17T01:45:22.230Z,92.60
2023-04-17T01:47:47.256Z,92.60
2023-04-17T01:50:11.901Z,92.60
2023-04-17T01:52:35.265Z,92.30
2023-04-17T01:54:58.562Z,92.30
2023-04-17T01:57:22.158Z,92.40
2023-04-17T01:59:46.852Z,92.30
2023-04-17T02:02:11.399Z,92.20
2023-04-17T02:04:34.725Z,92.30
2023-04-17T02:06:58.094Z,92.40
2023-04-17T02:09:21.411Z,92.40
2023-04-17T02:11:44.624Z,92.30
2023-04-17T02:14:07.986Z,92.40
2023-04-17T02:16:32.811Z,92.50
2023-04-17T02:18:56.630Z,92.20
2023-04-17T02:21:20.022Z,92.40
2023-04-17T02:23:43.629Z,92.50
2023-04-17T02:26:06.973Z,92.40
2023-04-17T02:28:30.239Z,92.40
2023-04-17T02:30:53.552Z,92.40
2023-04-17T02:33:18.248Z,92.50
2023-04-17T02:35:41.725Z,92.60
2023-04-17T02:38:05.112Z,92.60
2023-04-17T02:40:30.059Z,92.50
2023-04-17T02:42:58.014Z,92.30
2023-04-17T02:45:21.636Z,92.40
2023-04-17T02:47:44.978Z,92.50
2023-04-17T02:50:12.206Z,92.50
2023-04-17T02:52:46.434Z,92.60
2023-04-17T02:55:10.741Z,92.70
2023-04-17T02:57:35.589Z,92.80
2023-04-17T02:59:58.931Z,93.00
2023-04-17T03:02:22.402Z,93.20
2023-04-17T03:04:45.948Z,93.20
2023-04-17T03:07:10.853Z,93.30
2023-04-17T03:09:35.459Z,93.40
2023-04-17T03:12:00.180Z,93.30
2023-04-17T03:14:23.536Z,93.40
2023-04-17T03:16:46.857Z,93.50
2023-04-17T03:19:10.412Z,93.50
2023-04-17T03:21:33.996Z,93.60
2023-04-17T03:23:58.828Z,93.60
2023-04-17T03:26:22.631Z,93.60
2023-04-17T03:28:46.516Z,93.50
2023-04-17T03:31:10.343Z,93.50
2023-04-17T03:33:33.767Z,93.50
2023-04-17T03:35:56.997Z,93.50
2023-04-17T03:38:20.816Z,93.60
2023-04-17T03:40:45.588Z,93.50
2023-04-17T03:43:34.518Z,93.50
2023-04-17T03:45:57.848Z,93.40
2023-04-17T03:48:21.318Z,93.50
2023-04-17T03:50:45.671Z,93.40
2023-04-17T03:53:09.775Z,93.40
2023-04-17T03:55:33.732Z,93.40
2023-04-17T03:57:58.463Z,93.40
2023-04-17T04:00:26.051Z,93.40
2023-04-17T04:02:54.283Z,93.20
2023-04-17T04:05:24.799Z,93.30
2023-04-17T04:07:48.908Z,93.20
2023-04-17T04:10:19.876Z,93.10
2023-04-17T04:12:43.296Z,93.10
2023-04-17T04:15:10.560Z,93.10
2023-04-17T04:17:34.735Z,93.10
2023-04-17T04:19:58.925Z,93.10
2023-04-17T04:22:22.440Z,93.00
2023-04-17T04:24:49.000Z,93.10
2023-04-17T04:27:18.171Z,93.10
2023-04-17T04:29:45.613Z,93.10
2023-04-17T04:32:15.775Z,93.00
2023-04-17T04:34:44.687Z,93.20
2023-04-17T04:37:08.120Z,93.00
2023-04-17T04:39:37.969Z,93.10
2023-04-17T04:42:05.898Z,93.10
2023-04-17T04:44:39.939Z,92.90
2023-04-17T04:47:04.542Z,93.00
2023-04-17T04:49:29.404Z,92.90
2023-04-17T04:51:52.737Z,92.90
2023-04-17T04:54:17.566Z,93.10
2023-04-17T04:56:47.062Z,93.20
2023-04-17T04:59:12.235Z,93.00
2023-04-17T05:01:41.154Z,93.10
2023-04-17T05:04:06.103Z,93.00
2023-04-17T05:06:31.557Z,92.90
2023-04-17T05:08:58.944Z,92.90
2023-04-17T05:11:22.453Z,92.90
2023-04-17T05:13:46.149Z,92.90
2023-04-17T05:16:17.480Z,92.90
2023-04-17T05:18:44.073Z,92.90
2023-04-17T05:21:11.756Z,92.80
2023-04-17T05:23:38.468Z,92.60
2023-04-17T05:26:02.545Z,92.90
2023-04-17T05:28:27.305Z,92.80
2023-04-17T05:30:53.417Z,92.90
2023-04-17T05:33:24.428Z,92.60
2023-04-17T05:35:49.745Z,92.80
2023-04-17T05:38:12.969Z,92.80
2023-04-17T05:40:37.822Z,92.70
2023-04-17T05:43:08.756Z,92.60
2023-04-17T05:45:32.915Z,92.70
2023-04-17T05:47:56.693Z,92.60
2023-04-17T05:50:20.214Z,92.60
2023-04-17T05:52:43.623Z,92.50
2023-04-17T05:55:10.199Z,92.50
2023-04-17T05:57:35.879Z,92.40
2023-04-17T05:59:59.432Z,92.50
2023-04-17T06:02:22.816Z,92.50
2023-04-17T06:04:47.059Z,92.70
2023-04-17T06:07:11.712Z,92.70
2023-04-17T06:09:36.258Z,92.10
2023-04-17T06:11:59.566Z,92.50
2023-04-17T06:14:25.002Z,92.60
2023-04-17T06:16:48.824Z,92.50
2023-04-17T06:19:13.641Z,92.60
2023-04-17T06:21:37.140Z,92.70
2023-04-17T06:24:00.801Z,92.60
2023-04-17T06:26:24.143Z,92.60
2023-04-17T06:28:47.437Z,92.20
2023-04-17T06:31:12.857Z,92.30
2023-04-17T06:33:36.359Z,92.10
2023-04-17T06:35:59.709Z,92.30
2023-04-17T06:38:33.758Z,92.40
2023-04-17T06:40:57.380Z,92.40
2023-04-17T06:43:20.824Z,92.40
2023-04-17T06:45:44.720Z,92.50
2023-04-17T06:48:09.585Z,92.60
2023-04-17T06:50:35.294Z,92.50
2023-04-17T06:52:58.448Z,92.40
2023-04-17T06:55:21.797Z,92.40
2023-04-17T06:57:45.439Z,92.50
2023-04-17T07:00:10.696Z,92.10
2023-04-17T07:02:34.152Z,92.20
2023-04-17T07:04:59.167Z,92.20
2023-04-17T07:07:22.899Z,92.20
2023-04-17T07:09:48.111Z,92.10
2023-04-17T07:12:11.432Z,92.10
2023-04-17T07:14:35.363Z,92.00
2023-04-17T07:16:58.701Z,91.90
2023-04-17T07:19:22.234Z,91.70
2023-04-17T07:21:46.860Z,91.80
2023-04-17T07:24:10.270Z,91.40
2023-04-17T07:26:33.619Z,90.90
2023-04-17T07:28:56.985Z,91.00
2023-04-17T07:31:21.937Z,90.20
2023-04-17T07:33:45.897Z,90.30
2023-04-17T07:36:11.963Z,90.50
2023-04-17T07:38:38.098Z,90.30
2023-04-17T07:41:03.187Z,90.30
2023-04-17T07:43:26.526Z,90.00
2023-04-17T07:45:49.989Z,89.70
2023-04-17T07:48:13.247Z,89.60
2023-04-17T07:50:36.573Z,89.30
2023-04-17T07:52:59.999Z,89.60
2023-04-17T07:55:24.863Z,89.60
2023-04-17T07:57:50.083Z,89.80
2023-04-17T08:00:14.878Z,89.30
2023-04-17T08:02:38.729Z,89.40
2023-04-17T08:05:02.284Z,89.10
2023-04-17T08:07:25.809Z,89.10
2023-04-17T08:09:51.043Z,89.10
2023-04-17T08:12:15.823Z,88.20
2023-04-17T08:14:40.751Z,88.20
2023-04-17T08:17:04.481Z,88.40
2023-04-17T08:19:28.384Z,88.80
2023-04-17T08:21:52.722Z,88.90
2023-04-17T08:24:18.618Z,88.70
2023-04-17T08:26:43.236Z,88.30
2023-04-17T08:29:08.225Z,88.00
2023-04-17T08:31:32.398Z,88.00
2023-04-17T08:34:06.243Z,87.90
2023-04-17T08:36:36.750Z,87.60
2023-04-17T08:38:59.966Z,86.30
2023-04-17T08:41:27.843Z,86.80
2023-04-17T08:43:52.015Z,86.50
2023-04-17T08:46:18.931Z,86.80
2023-04-17T08:48:42.720Z,86.50
2023-04-17T08:51:06.286Z,86.60
2023-04-17T08:53:29.693Z,86.00
2023-04-17T08:55:53.048Z,86.70
2023-04-17T08:58:16.432Z,85.40
2023-04-17T09:00:41.349Z,84.70
2023-04-17T09:03:08.792Z,85.80
2023-04-17T09:05:34.128Z,84.70
2023-04-17T09:08:12.828Z,85.40
2023-04-17T09:10:37.856Z,85.20
2023-04-17T09:13:01.908Z,84.60
2023-04-17T09:15:25.674Z,84.60
2023-04-17T09:17:48.979Z,82.50
2023-04-17T09:20:14.387Z,81.10
2023-04-17T09:22:40.257Z,81.00
2023-04-17T09:25:05.229Z,81.30
2023-04-17T09:27:30.239Z,81.30
2023-04-17T09:30:02.535Z,81.30
2023-04-17T09:32:26.696Z,81.90
2023-04-17T09:34:50.559Z,82.30
2023-04-17T09:37:15.210Z,79.30
2023-04-17T09:39:40.659Z,79.60
2023-04-17T09:42:06.087Z,78.30
2023-04-17T09:44:30.549Z,77.40
2023-04-17T09:46:55.138Z,78.60
2023-04-17T09:49:25.153Z,78.00
2023-04-17T09:51:49.347Z,76.30
2023-04-17T09:54:17.456Z,75.30
2023-04-17T09:56:41.205Z,75.70
2023-04-17T09:59:06.093Z,75.50
2023-04-17T10:01:30.079Z,74.90
2023-04-17T10:03:53.622Z,77.90
2023-04-17T10:06:17.174Z,74.10
2023-04-17T10:08:41.181Z,74.50
2023-04-17T10:11:08.571Z,74.20
2023-04-17T10:13:32.127Z,69.40
2023-04-17T10:15:55.407Z,71.20
2023-04-17T10:18:24.267Z,70.20
2023-04-17T10:20:49.632Z,71.40
2023-04-17T10:23:33.377Z,69.40
2023-04-17T10:26:47.007Z,68.30
2023-04-17T10:29:10.441Z,70.20
2023-04-17T10:32:28.373Z,69.10
2023-04-17T10:34:51.917Z,69.20
2023-04-17T10:37:16.213Z,69.30
2023-04-17T10:39:57.570Z,67.80
2023-04-17T10:42:25.583Z,69.30
2023-04-17T10:44:51.829Z,65.50
2023-04-17T10:47:15.182Z,66.20
2023-04-17T10:49:50.606Z,67.10
2023-04-17T10:52:44.714Z,63.70
2023-04-17T10:55:09.510Z,63.40
2023-04-17T10:58:04.676Z,64.10
2023-04-17T11:00:34.619Z,62.90
2023-04-17T11:02:58.147Z,64.20
2023-04-17T11:05:22.834Z,64.20
2023-04-17T11:07:50.743Z,58.70
2023-04-17T11:10:15.342Z,58.20
2023-04-17T11:12:39.389Z,58.70
2023-04-17T11:15:09.034Z,61.60
2023-04-17T11:17:32.626Z,60.20
2023-04-17T11:19:56.243Z,57.80
2023-04-17T11:22:19.586Z,58.00
2023-04-17T11:24:42.847Z,61.00
2023-04-17T11:27:06.134Z,59.30
2023-04-17T11:29:29.603Z,56.50
2023-04-17T11:31:56.672Z,54.30
2023-04-17T11:34:21.057Z,54.80
2023-04-17T11:36:50.406Z,57.40
2023-04-17T11:39:16.216Z,53.50
2023-04-17T11:41:42.575Z,55.80
2023-04-17T11:44:09.824Z,52.50
2023-04-17T11:46:33.082Z,54.20
2023-04-17T11:48:57.879Z,54.90
2023-04-17T11:51:21.271Z,51.30
2023-04-17T11:53:48.361Z,55.30
2023-04-17T11:56:16.284Z,53.20
2023-04-17T11:58:47.932Z,50.90
2023-04-17T12:01:13.080Z,50.70
2023-04-17T12:03:37.529Z,50.70
2023-04-17T12:06:05.065Z,52.50
2023-04-17T12:08:29.055Z,52.40
2023-04-17T12:10:52.391Z,50.80
2023-04-17T12:13:15.745Z,48.20
2023-04-17T12:15:39.529Z,49.70
2023-04-17T12:18:05.654Z,47.30
2023-04-17T12:20:28.996Z,51.90
2023-04-17T12:22:54.014Z,50.10
2023-04-17T12:25:17.831Z,51.50
2023-04-17T12:27:41.051Z,53.00
2023-04-17T12:30:04.725Z,48.20
2023-04-17T12:32:28.447Z,49.40
2023-04-17T12:34:52.161Z,50.20
2023-04-17T12:37:16.147Z,48.90
2023-04-17T12:39:40.760Z,48.10
2023-04-17T12:42:04.042Z,48.20
2023-04-17T12:44:27.391Z,44.60
2023-04-17T12:46:50.591Z,46.20
2023-04-17T12:49:14.162Z,49.80
2023-04-17T12:51:38.144Z,47.50
2023-04-17T12:54:01.457Z,49.20
2023-04-17T12:56:26.182Z,48.60
2023-04-17T12:58:49.586Z,48.20
2023-04-17T13:01:12.973Z,49.90
2023-04-17T13:03:36.644Z,48.20
2023-04-17T13:06:00.160Z,48.50
2023-04-17T13:08:23.852Z,47.20
2023-04-17T13:10:47.062Z,44.20
2023-04-17T13:13:12.084Z,44.90
2023-04-17T13:15:35.456Z,45.50
2023-04-17T13:17:58.810Z,45.60
2023-04-17T13:20:22.257Z,45.90
2023-04-17T13:22:45.592Z,44.20
2023-04-17T13:25:10.214Z,43.90
2023-04-17T13:27:33.585Z,43.60
2023-04-17T13:29:58.349Z,44.80
2023-04-17T13:32:21.666Z,44.50
2023-04-17T13:34:44.971Z,45.10
2023-04-17T13:37:08.584Z,43.90
2023-04-17T13:39:31.877Z,43.40
2023-04-17T13:41:57.338Z,45.10
2023-04-17T13:44:20.998Z,46.10
2023-04-17T13:46:45.936Z,45.30
2023-04-17T13:49:09.277Z,43.80
2023-04-17T13:51:32.697Z,44.60
2023-04-17T13:53:58.670Z,46.70
2023-04-17T13:56:23.775Z,48.50
2023-04-17T13:58:47.894Z,46.70
2023-04-17T14:01:12.415Z,45.20
2023-04-17T14:03:39.722Z,45.20
2023-04-17T14:06:04.064Z,51.20
2023-04-17T14:08:27.436Z,45.90
2023-04-17T14:10:50.729Z,46.00
2023-04-17T14:13:14.160Z,47.00
2023-04-17T14:15:37.543Z,45.20
2023-04-17T14:18:01.332Z,45.00
2023-04-17T14:20:26.153Z,44.10
2023-04-17T14:22:49.530Z,46.70
2023-04-17T14:25:12.956Z,46.90
2023-04-17T14:27:37.016Z,45.60
2023-04-17T14:30:01.588Z,47.40
2023-04-17T14:32:25.562Z,44.90
2023-04-17T14:34:48.843Z,46.00
2023-04-17T14:37:13.830Z,45.80
2023-04-17T14:39:37.154Z,46.90
2023-04-17T14:42:02.078Z,45.80
2023-04-17T14:44:25.904Z,45.00
2023-04-17T14:46:50.458Z,46.70
2023-04-17T14:49:14.430Z,50.30
2023-04-17T14:51:37.806Z,48.20
2023-04-17T14:54:02.425Z,47.20
2023-04-17T14:56:25.819Z,48.50
2023-04-17T14:58:49.112Z,49.60
2023-04-17T15:01:12.468Z,45.50
2023-04-17T15:03:36.010Z,43.40
2023-04-17T15:06:01.519Z,42.30
2023-04-17T15:08:24.829Z,43.50
2023-04-17T15:10:51.528Z,42.20
2023-04-17T15:13:15.043Z,41.70
2023-04-17T15:15:38.252Z,40.50
2023-04-17T15:18:01.587Z,40.80
2023-04-17T15:20:25.857Z,41.40
2023-04-17T15:22:52.442Z,42.70
2023-04-17T15:25:15.860Z,43.00
2023-04-17T15:27:40.881Z,43.10
2023-04-17T15:30:08.812Z,42.80
2023-04-17T15:32:32.490Z,43.60
2023-04-17T15:34:55.865Z,42.90
2023-04-17T15:37:19.172Z,45.60
2023-04-17T15:39:42.519Z,44.60
2023-04-17T15:42:09.398Z,46.30
2023-04-17T15:44:35.333Z,45.70
2023-04-17T15:46:58.781Z,48.50
2023-04-17T15:49:22.595Z,47.60
2023-04-17T15:51:46.054Z,42.70
2023-04-17T15:54:11.813Z,43.80
2023-04-17T15:56:35.189Z,44.60
2023-04-17T15:58:58.417Z,41.00
2023-04-17T16:01:23.200Z,41.80
2023-04-17T16:03:47.768Z,43.60
2023-04-17T16:06:11.446Z,43.90
2023-04-17T16:08:34.793Z,42.80
2023-04-17T16:10:59.669Z,44.80
2023-04-17T16:13:23.137Z,40.80
2023-04-17T16:15:46.480Z,43.10
2023-04-17T16:18:11.724Z,41.80
2023-04-17T16:20:34.996Z,42.70
2023-04-17T16:22:58.301Z,44.00
2023-04-17T16:25:21.623Z,44.50
2023-04-17T16:27:45.069Z,46.60
2023-04-17T16:30:10.409Z,45.90
2023-04-17T16:32:33.733Z,45.00
2023-04-17T16:34:58.455Z,45.30
2023-04-17T16:37:21.784Z,45.20
2023-04-17T16:39:45.100Z,44.90
2023-04-17T16:42:08.421Z,44.90
2023-04-17T16:44:31.716Z,44.80
2023-04-17T16:49:22.335Z,44.60
2023-04-17T16:51:47.093Z,44.50
2023-04-17T16:54:10.631Z,45.60
2023-04-17T16:56:33.987Z,45.50
2023-04-17T16:58:57.282Z,46.90
2023-04-17T17:01:20.655Z,45.10
2023-04-17T17:03:44.957Z,46.00
2023-04-17T17:06:08.792Z,45.40
2023-04-17T17:08:33.490Z,45.30
2023-04-17T17:10:56.778Z,46.90
2023-04-17T17:13:20.048Z,45.50
2023-04-17T17:15:43.457Z,46.00
2023-04-17T17:18:07.777Z,47.60
2023-04-17T17:20:31.019Z,46.90
2023-04-17T17:22:54.256Z,46.60
2023-04-17T17:25:19.012Z,48.70
2023-04-17T17:27:42.278Z,48.80
2023-04-17T17:30:06.501Z,48.10
2023-04-17T17:32:29.792Z,47.00
2023-04-17T17:34:53.064Z,47.70
2023-04-17T17:37:16.344Z,47.80
2023-04-17T17:39:39.636Z,48.20
2023-04-17T17:42:08.693Z,47.60
2023-04-17T17:44:32.452Z,48.80
2023-04-17T17:46:55.769Z,49.50
2023-04-17T17:49:19.031Z,48.30
2023-04-17T17:51:42.465Z,49.20
2023-04-17T17:54:05.855Z,49.80
2023-04-17T17:56:29.320Z,48.80
2023-04-17T17:58:53.964Z,49.40
2023-04-17T18:01:17.306Z,49.90
2023-04-17T18:03:40.755Z,48.90
2023-04-17T18:06:04.048Z,49.60
2023-04-17T18:08:27.350Z,48.70
2023-04-17T18:10:50.925Z,49.20
2023-04-17T18:13:14.144Z,49.90
2023-04-17T18:15:38.847Z,49.60
2023-04-17T18:18:02.118Z,50.40
2023-04-17T18:20:25.618Z,50.50
2023-04-17T18:22:48.959Z,50.90
2023-04-17T18:25:12.965Z,50.70
2023-04-17T18:27:37.024Z,50.10
2023-04-17T18:30:00.285Z,50.60
2023-04-17T18:32:25.053Z,50.10
2023-04-17T18:34:49.219Z,51.80
2023-04-17T18:37:12.506Z,52.10
2023-04-17T18:39:35.818Z,52.50
2023-04-17T18:41:59.629Z,52.40
2023-04-17T18:44:22.997Z,52.30
2023-04-17T18:46:46.361Z,51.70
2023-04-17T18:49:11.088Z,52.10
2023-04-17T18:51:34.491Z,53.70
2023-04-17T18:53:57.725Z,52.40
2023-04-17T18:56:21.127Z,54.70
2023-04-17T18:58:44.513Z,56.50
2023-04-17T19:01:08.670Z,56.40
2023-04-17T19:03:32.458Z,56.60
2023-04-17T19:05:57.410Z,57.10
2023-04-17T19:08:20.724Z,56.60
2023-04-17T19:10:44.084Z,57.70
2023-04-17T19:13:09.787Z,57.60
2023-04-17T19:15:33.137Z,57.40
2023-04-17T19:17:56.958Z,58.20
2023-04-17T19:20:22.710Z,59.80
2023-04-17T19:22:47.579Z,59.40
2023-04-17T19:25:11.314Z,60.00
2023-04-17T19:27:34.758Z,60.20
2023-04-17T19:29:58.388Z,59.50
2023-04-17T19:32:21.788Z,60.50
2023-04-17T19:34:45.387Z,59.90
2023-04-17T19:37:08.674Z,59.40
2023-04-17T19:39:33.379Z,59.90
2023-04-17T19:41:56.865Z,60.70
2023-04-17T19:44:20.312Z,61.60
2023-04-17T19:46:43.601Z,63.00
2023-04-17T19:49:07.040Z,62.30
2023-04-17T19:51:31.413Z,61.60
2023-04-17T19:53:55.072Z,62.10
2023-04-17T19:56:20.070Z,62.40
2023-04-17T19:58:43.600Z,62.40
2023-04-17T20:01:07.759Z,62.90
2023-04-17T20:03:32.471Z,62.70
2023-04-17T20:05:57.183Z,61.50
2023-04-17T20:08:20.474Z,62.10
2023-04-17T20:10:43.833Z,62.30
2023-04-17T20:13:08.540Z,61.90
2023-04-17T20:15:31.839Z,63.70
2023-04-17T20:17:55.477Z,62.50
2023-04-17T20:20:18.764Z,63.90
2023-04-17T20:22:42.208Z,65.20
2023-04-17T20:25:06.411Z,64.80
2023-04-17T20:27:29.712Z,65.10
2023-04-17T20:29:54.322Z,64.70
2023-04-17T20:32:17.906Z,63.80
2023-04-17T20:34:41.416Z,64.80
2023-04-17T20:37:04.702Z,64.60
2023-04-17T20:39:28.143Z,64.50
2023-04-17T20:41:51.468Z,65.50
2023-04-17T20:44:15.779Z,65.50
2023-04-17T20:46:40.441Z,66.40
2023-04-17T20:49:03.867Z,65.80
2023-04-17T20:51:27.424Z,65.90
2023-04-17T20:53:50.794Z,66.40
2023-04-17T20:56:14.289Z,66.30
2023-04-17T20:58:37.759Z,66.00
2023-04-17T21:01:01.972Z,66.60
2023-04-17T21:03:26.788Z,66.90
2023-04-17T21:05:51.087Z,66.80
2023-04-17T21:08:14.455Z,66.90
2023-04-17T21:10:37.717Z,68.00
2023-04-17T21:13:01.243Z,68.30
2023-04-17T21:15:24.766Z,67.60
2023-04-17T21:17:48.226Z,68.20
2023-04-17T21:20:13.910Z,68.10
2023-04-17T21:22:37.622Z,67.90
2023-04-17T21:25:00.847Z,67.10
2023-04-17T21:27:24.309Z,67.30
2023-04-17T21:29:47.742Z,67.60
2023-04-17T21:32:11.012Z,67.00
2023-04-17T21:34:35.271Z,67.30
2023-04-17T21:37:02.130Z,66.60
2023-04-17T21:39:25.410Z,66.50
2023-04-17T21:41:48.709Z,65.70
2023-04-17T21:44:12.303Z,65.80
2023-04-17T21:46:35.730Z,65.60
2023-04-17T21:48:58.988Z,65.30
2023-04-17T21:51:22.201Z,64.50
2023-04-17T21:53:46.839Z,64.30
2023-04-17T21:56:10.204Z,63.60
2023-04-17T21:58:33.670Z,63.80
2023-04-17T22:00:57.135Z,64.10
2023-04-17T22:03:21.721Z,63.50
2023-04-17T22:05:45.110Z,62.40
2023-04-17T22:08:08.387Z,61.70
2023-04-17T22:10:33.505Z,61.60
2023-04-17T22:12:56.862Z,61.50
2023-04-17T22:15:20.333Z,61.50
2023-04-17T22:17:43.639Z,61.10
2023-04-17T22:20:09.020Z,61.60
2023-04-17T22:22:32.332Z,60.80
2023-04-17T22:24:55.592Z,60.60
2023-04-17T22:27:20.228Z,60.90
2023-04-17T22:29:43.563Z,60.20
2023-04-17T22:32:07.040Z,61.40
2023-04-17T22:34:30.399Z,61.50
2023-04-17T22:36:53.555Z,61.10
2023-04-17T22:39:17.070Z,59.70
2023-04-17T22:41:40.324Z,59.10
2023-04-17T22:44:05.176Z,58.90
2023-04-17T22:46:28.510Z,58.40
2023-04-17T22:48:51.729Z,57.50
2023-04-17T22:51:15.063Z,57.10
2023-04-17T22:53:38.513Z,57.10
2023-04-17T22:56:02.953Z,57.10
2023-04-17T22:58:26.157Z,58.20
2023-04-17T23:00:50.759Z,58.10
2023-04-17T23:03:14.240Z,57.30
2023-04-17T23:05:37.591Z,57.40
2023-04-17T23:08:01.300Z,57.90
2023-04-17T23:10:24.610Z,56.10
2023-04-17T23:12:47.999Z,57.10
2023-04-17T23:15:12.163Z,56.60
2023-04-17T23:17:36.747Z,56.60
2023-04-17T23:20:00.423Z,57.70
2023-04-17T23:22:23.760Z,58.10
2023-04-17T23:24:47.105Z,57.50
2023-04-17T23:27:10.369Z,58.70
2023-04-17T23:29:33.637Z,58.70
2023-04-17T23:31:56.971Z,58.60
2023-04-17T23:34:21.600Z,58.00
2023-04-17T23:36:44.950Z,57.90
2023-04-17T23:39:08.262Z,57.20
2023-04-17T23:41:33.774Z,58.00
2023-04-17T23:43:57.184Z,58.80
2023-04-17T23:46:20.615Z,58.50
2023-04-17T23:48:43.854Z,57.40
2023-04-17T23:51:08.958Z,58.40
2023-04-17T23:53:32.206Z,58.40
2023-04-17T23:55:55.464Z,58.40
2023-04-17T23:58:18.749Z,59.00
